Bookmark and Share
Track history (hours):
 

Independence of the Seas

Last reported at 2014-Apr-20 20:26 UTC. Time now 2014-Apr-20 21:11 UTC.
Position N 26°05' W 080°07'.

Length 339 m; draft 9 m.

Type: Passenger vessel. MMSI: 309374000.

NotesDate/timePositionNaut miles runAvg speedWind from/ knotsBaromVisibWave heightAir tempDewpointWater temp
2014-Apr-20 20:26N 26°05' W 080°07'0 0.0
2014-Apr-20 19:29N 26°05' W 080°07'0 0.0
2014-Apr-20 18:29N 26°05' W 080°07'0 0.0
2014-Apr-20 17:29N 26°05' W 080°07'0 0.0
2014-Apr-20 16:32N 26°05' W 080°07'0 0.0
2014-Apr-20 15:32N 26°05' W 080°07'0 0.0
2014-Apr-20 14:32N 26°05' W 080°07'0 0.0
2014-Apr-20 13:32N 26°05' W 080°07'0 0.0
2014-Apr-20 12:32N 26°05' W 080°07'0 0.0
2014-Apr-20 11:32N 26°05' W 080°07'0 0.0
2014-Apr-20 10:32N 26°05' W 080°07'0 0.0
2014-Apr-20 09:23N 26°05' W 080°07'2 2.6
2014-Apr-20 08:33N 26°06' W 080°05'1212.4
2014-Apr-20 07:33N 25°56' W 079°56'2119.7
2014-Apr-20 06:29N 25°36' W 079°49'  
2014-Apr-17 23:04N 18°56' W 067°27'1019.9
2014-Apr-17 22:34N 18°52' W 067°17'2219.9
2014-Apr-17 21:28N 18°45' W 066°56'1819.8
2014-Apr-17 20:34N 18°39' W 066°38'20610.0
2014-Apr-17 00:00N 17°36' W 063°12'5 0.3 070 / 231014.0 1.5 26.0
2014-Apr-16 07:18N 17°41' W 063°10'8 8.8
2014-Apr-16 06:23N 17°45' W 063°17'7 8.8
2014-Apr-16 05:33N 17°49' W 063°23'11 8.7
2014-Apr-16 04:14N 17°50' W 063°35'14 3.5
2014-Apr-16 00:16N 17°57' W 063°23'6 8.9
2014-Apr-15 23:33N 17°58' W 063°16'9 8.8
2014-Apr-15 22:31N 17°60' W 063°07'3 0.2
2014-Apr-15 10:31N 18°00' W 063°04'1111.4
2014-Apr-15 09:34N 18°05' W 063°15'1716.7
2014-Apr-15 08:33N 18°15' W 063°29'15217.8
2014-Apr-15 00:00N 19°48' W 065°36'86717.9 070 / 151014.0 1.5 26.0
2014-Apr-12 23:33N 26°08' W 079°43'1717.0
2014-Apr-12 22:33N 26°06' W 080°01'5 5.0
2014-Apr-12 21:33N 26°05' W 080°07'0 0.0
2014-Apr-12 20:33N 26°05' W 080°07'0 0.0
2014-Apr-12 19:33N 26°05' W 080°07'0 0.0
2014-Apr-12 18:33N 26°05' W 080°07'0 0.0
2014-Apr-12 17:33N 26°05' W 080°07'0 0.0
2014-Apr-12 16:24N 26°05' W 080°07'0 0.0
2014-Apr-12 15:27N 26°05' W 080°07'0 0.0
2014-Apr-12 14:27N 26°05' W 080°07'0 0.0
2014-Apr-12 13:27N 26°05' W 080°07'0 0.0
2014-Apr-12 12:30N 26°05' W 080°07'0 0.0
2014-Apr-12 11:30N 26°05' W 080°07'0 0.0
2014-Apr-12 10:30N 26°05' W 080°07'0 0.0
2014-Apr-12 09:33N 26°05' W 080°07'0 0.0
2014-Apr-12 08:33N 26°05' W 080°07'0 0.0
2014-Apr-12 07:18N 26°05' W 080°07'1 1.4
2014-Apr-12 06:33N 26°06' W 080°06'1514.8
2014-Apr-12 05:33N 25°55' W 079°55'2625.9
2014-Apr-12 04:34N 25°30' W 079°48'  

Dump ship's entire track history

sailing weather and tide predictions

Independence of the Seas — C6WW4 — position and weather